Time;durP1;ratioP1;P1;durP2;ratioP2;P2;SDS_P1;SDS_P2;PMS_P1;PMS_P2;Temp;Humidity;BMP_temperature;BMP_pressure;BME280_temperature;BME280_humidity;BME280_pressure;Samples;Min_cycle;Max_cycle;Signal;HPM_P1;HPM_P2
2022/09/05 00:01:09;;;;;;;0.00;0.00;;;17.40;99.90;;;;;;5050675;28;20690;-64
2022/09/05 00:03:57;;;;;;;0.00;0.00;;;17.30;99.90;;;;;;5050159;28;20228;-64
2022/09/05 00:06:27;;;;;;;0.00;0.00;;;17.30;99.90;;;;;;5051348;28;20217;-64
2022/09/05 00:09:07;;;;;;;0.00;0.00;;;17.20;99.90;;;;;;5051382;28;20202;-64
2022/09/05 00:12:07;;;;;;;0.00;0.00;;;17.30;99.90;;;;;;5050983;28;20211;-64
2022/09/05 00:15:01;;;;;;;0.00;0.00;;;17.20;99.90;;;;;;5049742;28;20186;-65
2022/09/05 00:17:36;;;;;;;0.00;0.00;;;17.20;99.90;;;;;;5051536;28;20208;-64
2022/09/05 00:20:26;;;;;;;0.00;0.00;;;17.10;99.90;;;;;;5051258;28;20173;-64
2022/09/05 00:23:01;;;;;;;0.00;0.00;;;17.10;99.90;;;;;;5033186;28;20178;-65
2022/09/05 00:25:48;;;;;;;0.00;0.00;;;17.10;99.90;;;;;;5050611;28;20216;-65
2022/09/05 00:28:22;;;;;;;0.00;0.00;;;17.10;99.90;;;;;;5050929;28;20180;-65
2022/09/05 00:31:11;;;;;;;0.10;0.10;;;17.10;99.90;;;;;;5050880;28;20189;-65
2022/09/05 00:34:14;;;;;;;0.00;0.00;;;17.00;99.90;;;;;;5050574;28;20181;-64
2022/09/05 00:36:45;;;;;;;0.00;0.00;;;17.00;99.90;;;;;;5039902;28;20177;-64
2022/09/05 00:39:16;;;;;;;0.00;0.00;;;17.00;99.90;;;;;;5050893;28;20567;-64
2022/09/05 00:41:45;;;;;;;0.00;0.00;;;17.00;99.90;;;;;;5050632;28;20185;-64
2022/09/05 00:44:12;;;;;;;0.00;0.00;;;17.00;99.90;;;;;;5050806;28;20335;-64
2022/09/05 00:46:43;;;;;;;0.00;0.00;;;16.90;99.90;;;;;;5050557;28;20185;-64
2022/09/05 00:49:18;;;;;;;0.00;0.00;;;16.90;99.90;;;;;;5050421;28;20189;-65
2022/09/05 00:52:02;;;;;;;0.00;0.00;;;16.90;99.90;;;;;;5043005;28;20529;-65
2022/09/05 00:54:39;;;;;;;0.00;0.00;;;16.80;99.90;;;;;;5053511;28;20247;-64
2022/09/05 00:57:44;;;;;;;0.00;0.00;;;16.80;99.90;;;;;;5054995;28;20177;-64
2022/09/05 01:00:17;;;;;;;0.00;0.00;;;16.80;99.90;;;;;;5043194;28;20193;-64
2022/09/05 01:02:57;;;;;;;0.00;0.00;;;16.80;99.90;;;;;;5053176;28;20589;-65
2022/09/05 01:05:40;;;;;;;0.45;0.45;;;16.70;99.90;;;;;;5054533;28;20263;-64
2022/09/05 01:08:18;;;;;;;0.00;0.00;;;16.70;99.90;;;;;;5053696;28;20174;-64
2022/09/05 01:11:00;;;;;;;0.00;0.00;;;16.70;99.90;;;;;;5054199;28;20181;-64
2022/09/05 01:13:53;;;;;;;0.00;0.00;;;16.70;99.90;;;;;;5045921;28;20178;-64
2022/09/05 01:16:33;;;;;;;0.00;0.00;;;16.70;99.90;;;;;;5053829;28;20268;-64
2022/09/05 01:19:10;;;;;;;0.00;0.00;;;16.70;99.90;;;;;;5054371;28;20671;-64
2022/09/05 01:21:53;;;;;;;0.00;0.00;;;16.70;99.90;;;;;;5053954;28;20177;-64
2022/09/05 01:24:41;;;;;;;0.00;0.00;;;16.70;99.90;;;;;;5054108;28;20276;-64
2022/09/05 01:27:44;;;;;;;0.00;0.00;;;16.70;99.90;;;;;;5043573;28;20668;-64
2022/09/05 01:30:13;;;;;;;0.00;0.00;;;16.60;99.90;;;;;;5053984;28;20207;-64
2022/09/05 01:32:38;;;;;;;0.00;0.00;;;16.60;99.90;;;;;;5054092;28;20185;-64
2022/09/05 01:35:36;;;;;;;0.00;0.00;;;16.60;99.90;;;;;;5053466;28;20177;-64
2022/09/05 01:38:20;;;;;;;0.00;0.00;;;16.60;99.90;;;;;;5053902;28;20189;-64
2022/09/05 01:41:20;;;;;;;0.00;0.00;;;16.60;99.90;;;;;;5053527;28;20188;-64
2022/09/05 01:44:00;;;;;;;0.00;0.00;;;16.60;99.90;;;;;;5053889;28;20237;-64
2022/09/05 01:46:59;;;;;;;0.00;0.00;;;16.50;99.90;;;;;;5053790;28;20209;-64
2022/09/05 01:50:02;;;;;;;0.00;0.00;;;16.50;99.90;;;;;;5033368;28;20178;-64
2022/09/05 01:52:44;;;;;;;0.00;0.00;;;16.50;99.90;;;;;;5053903;28;20170;-64
2022/09/05 01:55:21;;;;;;;0.00;0.00;;;16.50;99.90;;;;;;5053375;28;20174;-64
2022/09/05 01:58:01;;;;;;;0.00;0.00;;;16.40;99.90;;;;;;5054091;28;20717;-65
2022/09/05 02:00:33;;;;;;;0.00;0.00;;;16.50;99.90;;;;;;5051542;28;20189;-64
2022/09/05 02:03:26;;;;;;;0.00;0.00;;;16.40;99.90;;;;;;5053346;28;20316;-64
2022/09/05 02:06:20;;;;;;;0.00;0.00;;;16.40;99.90;;;;;;5041314;28;20233;-64
2022/09/05 02:08:51;;;;;;;0.00;0.00;;;16.40;99.90;;;;;;5053133;28;20186;-64
2022/09/05 02:11:17;;;;;;;0.00;0.00;;;16.40;99.90;;;;;;5053183;28;20178;-64
2022/09/05 02:13:55;;;;;;;0.00;0.00;;;16.40;99.90;;;;;;5052201;28;20180;-64
2022/09/05 02:16:27;;;;;;;0.00;0.00;;;16.30;99.90;;;;;;5051998;28;20177;-64
2022/09/05 02:18:58;;;;;;;0.00;0.00;;;16.30;99.90;;;;;;5052016;28;20212;-64
2022/09/05 02:21:35;;;;;;;0.00;0.00;;;16.30;99.90;;;;;;5053242;28;20185;-64
2022/09/05 02:24:24;;;;;;;0.00;0.00;;;16.40;99.90;;;;;;5052617;28;20223;-64
2022/09/05 02:27:10;;;;;;;0.00;0.00;;;16.30;99.90;;;;;;5053034;28;20186;-64
2022/09/05 02:30:01;;;;;;;0.00;0.00;;;16.30;99.90;;;;;;5040707;28;20173;-64
2022/09/05 02:33:04;;;;;;;0.00;0.00;;;16.30;99.90;;;;;;5053031;28;20177;-64
2022/09/05 02:35:40;;;;;;;0.00;0.00;;;16.30;99.90;;;;;;5052748;28;20203;-64
2022/09/05 02:38:08;;;;;;;0.00;0.00;;;16.30;99.90;;;;;;5044508;28;20173;-64
2022/09/05 02:40:55;;;;;;;0.00;0.00;;;16.20;99.90;;;;;;5052898;28;20272;-64
2022/09/05 02:43:43;;;;;;;0.00;0.00;;;16.20;99.90;;;;;;5052823;28;20185;-64
2022/09/05 02:46:26;;;;;;;0.00;0.00;;;16.20;99.90;;;;;;5052351;28;20185;-64
2022/09/05 02:49:09;;;;;;;0.00;0.00;;;16.20;99.90;;;;;;5033675;28;20178;-64
2022/09/05 02:51:48;;;;;;;0.00;0.00;;;16.20;99.90;;;;;;5051059;28;20177;-64
2022/09/05 02:54:21;;;;;;;0.00;0.00;;;16.20;99.90;;;;;;5052608;28;20262;-64
2022/09/05 02:57:18;;;;;;;0.00;0.00;;;16.20;99.90;;;;;;5052063;28;20177;-64
2022/09/05 03:00:00;;;;;;;0.00;0.00;;;16.20;99.90;;;;;;5052389;28;20178;-64
2022/09/05 03:02:52;;;;;;;0.00;0.00;;;16.20;99.90;;;;;;5051263;28;20395;-64
2022/09/05 03:05:32;;;;;;;0.00;0.00;;;16.30;99.90;;;;;;5052356;28;20252;-64
2022/09/05 03:08:30;;;;;;;0.00;0.00;;;16.30;99.90;;;;;;5051629;28;20185;-65
2022/09/05 03:11:33;;;;;;;0.00;0.00;;;16.30;99.90;;;;;;5051952;28;20272;-64
2022/09/05 03:14:37;;;;;;;0.00;0.00;;;16.30;99.90;;;;;;5051681;28;20721;-64
2022/09/05 03:17:27;;;;;;;0.00;0.00;;;16.30;99.90;;;;;;5048162;28;20221;-64
2022/09/05 03:20:21;;;;;;;0.13;0.13;;;16.20;99.90;;;;;;5051990;28;20185;-64
2022/09/05 03:23:05;;;;;;;0.00;0.00;;;16.20;99.90;;;;;;5039163;28;20177;-64
2022/09/05 03:25:56;;;;;;;0.00;0.00;;;16.20;99.90;;;;;;5051372;28;20676;-64
2022/09/05 03:29:10;;;;;;;0.00;0.00;;;16.20;99.90;;;;;;5050947;28;20189;-64
2022/09/05 03:32:18;;;;;;;0.00;0.00;;;16.20;99.90;;;;;;5051920;28;20775;-64
2022/09/05 03:35:00;;;;;;;0.00;0.00;;;16.20;99.90;;;;;;5047983;28;20182;-64
2022/09/05 03:37:47;;;;;;;0.00;0.00;;;16.20;99.90;;;;;;5032240;28;20190;-64
2022/09/05 03:40:27;;;;;;;0.00;0.00;;;16.20;99.90;;;;;;5038222;28;20181;-62
2022/09/05 03:43:08;;;;;;;0.00;0.00;;;16.10;99.90;;;;;;5051516;28;20260;-62
2022/09/05 03:46:01;;;;;;;0.00;0.00;;;16.10;99.90;;;;;;5051833;28;20220;-63
2022/09/05 03:49:01;;;;;;;0.00;0.00;;;16.10;99.90;;;;;;5044423;28;20649;-63
2022/09/05 03:51:40;;;;;;;0.00;0.00;;;16.10;99.90;;;;;;5051215;28;20188;-63
2022/09/05 03:54:43;;;;;;;0.00;0.00;;;16.10;99.90;;;;;;5051733;28;20177;-63
2022/09/05 03:57:55;;;;;;;0.00;0.00;;;16.00;99.90;;;;;;5051370;28;20766;-62
2022/09/05 04:00:26;;;;;;;0.00;0.00;;;16.00;99.90;;;;;;5051575;28;20181;-64
2022/09/05 04:03:10;;;;;;;0.00;0.00;;;16.00;99.90;;;;;;5050870;28;20217;-62
2022/09/05 04:05:44;;;;;;;0.00;0.00;;;16.00;99.90;;;;;;5051710;28;20266;-64
2022/09/05 04:08:25;;;;;;;0.08;0.08;;;16.00;99.90;;;;;;5049246;28;20169;-68
2022/09/05 04:11:04;;;;;;;0.00;0.00;;;15.90;99.90;;;;;;5049701;28;20202;-64
2022/09/05 04:13:54;;;;;;;0.00;0.00;;;15.80;99.90;;;;;;5051218;28;20204;-68
2022/09/05 04:16:32;;;;;;;0.00;0.00;;;15.80;99.90;;;;;;5051192;28;20272;-62
2022/09/05 04:19:14;;;;;;;0.00;0.00;;;15.80;99.90;;;;;;5045641;28;20189;-64
2022/09/05 04:22:18;;;;;;;0.00;0.00;;;15.70;99.90;;;;;;5051305;28;20177;-64
2022/09/05 04:24:56;;;;;;;0.00;0.00;;;15.80;99.90;;;;;;5050408;28;20217;-62
2022/09/05 04:27:31;;;;;;;0.00;0.00;;;15.70;99.90;;;;;;5050971;28;20197;-62
2022/09/05 04:30:16;;;;;;;0.00;0.00;;;15.70;99.90;;;;;;5051548;28;20231;-62
2022/09/05 04:33:19;;;;;;;0.00;0.00;;;15.70;99.90;;;;;;5051472;28;20197;-63
2022/09/05 04:36:18;;;;;;;0.00;0.00;;;15.70;99.90;;;;;;5051224;28;20572;-64
2022/09/05 04:38:45;;;;;;;0.00;0.00;;;15.70;99.90;;;;;;5050953;28;20185;-62
2022/09/05 04:41:16;;;;;;;0.10;0.10;;;15.70;99.90;;;;;;5051466;28;20180;-65
2022/09/05 04:43:42;;;;;;;0.00;0.00;;;15.60;99.90;;;;;;5051218;28;20613;-64
2022/09/05 04:46:16;;;;;;;0.00;0.00;;;15.60;99.90;;;;;;5050809;28;20302;-65
2022/09/05 04:48:55;;;;;;;0.00;0.00;;;15.60;99.90;;;;;;5050925;28;20181;-65
2022/09/05 04:51:54;;;;;;;0.00;0.00;;;15.60;99.90;;;;;;5051516;28;20177;-65
2022/09/05 04:54:26;;;;;;;0.00;0.00;;;15.60;99.90;;;;;;5051390;28;20537;-65
2022/09/05 04:57:07;;;;;;;0.00;0.00;;;15.60;99.90;;;;;;5051602;28;20181;-64
2022/09/05 04:59:51;;;;;;;0.00;0.00;;;15.60;99.90;;;;;;5051211;28;20315;-65
2022/09/05 05:02:30;;;;;;;0.25;0.25;;;15.70;99.90;;;;;;5051109;28;20225;-64
2022/09/05 05:05:03;;;;;;;0.00;0.00;;;15.70;99.90;;;;;;5051169;28;20209;-64
2022/09/05 05:07:43;;;;;;;0.00;0.00;;;15.70;99.90;;;;;;5051297;28;20185;-64
2022/09/05 05:10:26;;;;;;;0.00;0.00;;;15.70;99.90;;;;;;5051329;28;20671;-64
2022/09/05 05:13:17;;;;;;;0.00;0.00;;;15.80;99.90;;;;;;5051346;28;20193;-64
2022/09/05 05:15:57;;;;;;;0.00;0.00;;;15.90;99.90;;;;;;5051323;28;20710;-64
2022/09/05 05:18:41;;;;;;;0.00;0.00;;;15.90;99.90;;;;;;5051209;28;20174;-64
2022/09/05 05:21:12;;;;;;;0.00;0.00;;;16.10;99.90;;;;;;5051278;28;20271;-64
2022/09/05 05:23:42;;;;;;;0.00;0.00;;;16.20;99.90;;;;;;5051178;28;20223;-65
2022/09/05 05:26:18;;;;;;;0.00;0.00;;;16.30;99.90;;;;;;5051188;28;20262;-64
2022/09/05 05:28:52;;;;;;;0.00;0.00;;;16.40;99.90;;;;;;5051254;28;20710;-64
2022/09/05 05:31:29;;;;;;;0.00;0.00;;;16.50;99.90;;;;;;5050900;28;20582;-64
2022/09/05 05:34:00;;;;;;;0.00;0.00;;;16.50;99.90;;;;;;5051049;28;20712;-64
2022/09/05 05:36:32;;;;;;;0.00;0.00;;;16.60;99.90;;;;;;5051063;28;20520;-65
2022/09/05 05:39:11;;;;;;;0.00;0.00;;;16.60;99.90;;;;;;5051613;28;20185;-65
2022/09/05 05:41:49;;;;;;;0.00;0.00;;;16.70;99.90;;;;;;5054500;28;20648;-65
2022/09/05 05:44:28;;;;;;;0.00;0.00;;;16.80;99.90;;;;;;5054539;28;20584;-65
2022/09/05 05:47:01;;;;;;;0.00;0.00;;;16.80;99.90;;;;;;5054710;28;20199;-64
2022/09/05 05:49:26;;;;;;;0.00;0.00;;;16.80;99.90;;;;;;5054542;28;20268;-64
2022/09/05 05:52:11;;;;;;;0.00;0.00;;;16.90;99.90;;;;;;5054432;28;20300;-65
2022/09/05 05:55:01;;;;;;;0.00;0.00;;;17.00;99.90;;;;;;5054440;28;20184;-64
2022/09/05 05:57:38;;;;;;;0.00;0.00;;;17.20;99.90;;;;;;5054536;28;20177;-64
2022/09/05 06:00:20;;;;;;;0.00;0.00;;;17.40;99.90;;;;;;5054411;28;20177;-64
2022/09/05 06:02:59;;;;;;;0.00;0.00;;;17.70;99.90;;;;;;5054137;28;20730;-64
2022/09/05 06:05:58;;;;;;;0.00;0.00;;;18.10;99.90;;;;;;5054418;28;20235;-65
2022/09/05 06:08:52;;;;;;;0.00;0.00;;;18.60;99.90;;;;;;5054290;28;20260;-65
2022/09/05 06:11:18;;;;;;;0.00;0.00;;;19.10;99.90;;;;;;5052946;28;20595;-65
2022/09/05 06:14:17;;;;;;;0.00;0.00;;;19.50;99.90;;;;;;5054166;28;20197;-64
2022/09/05 06:17:05;;;;;;;2.00;0.28;;;19.70;99.90;;;;;;5054109;28;20170;-65
2022/09/05 06:19:55;;;;;;;0.00;0.00;;;20.10;99.90;;;;;;5054075;28;20178;-65
2022/09/05 06:22:43;;;;;;;0.00;0.00;;;20.80;99.90;;;;;;5054070;28;20245;-65
2022/09/05 06:25:42;;;;;;;0.00;0.00;;;21.50;99.90;;;;;;5053908;28;20221;-65
2022/09/05 06:28:29;;;;;;;0.00;0.00;;;22.20;99.90;;;;;;5053959;28;20276;-65
2022/09/05 06:31:09;;;;;;;0.00;0.00;;;22.70;99.90;;;;;;5053770;28;20193;-65
2022/09/05 06:33:48;;;;;;;0.00;0.00;;;23.10;99.90;;;;;;5053645;28;20177;-65
2022/09/05 06:36:46;;;;;;;0.00;0.00;;;23.50;99.40;;;;;;5053835;28;20170;-65
2022/09/05 06:39:38;;;;;;;0.00;0.00;;;23.80;98.50;;;;;;5053852;28;20182;-65
2022/09/05 06:42:08;;;;;;;0.00;0.00;;;24.30;97.90;;;;;;5052685;28;20208;-65
2022/09/05 06:44:46;;;;;;;0.00;0.00;;;24.80;96.70;;;;;;5053515;28;20573;-65
2022/09/05 06:47:18;;;;;;;0.00;0.00;;;24.90;95.20;;;;;;5053686;28;20178;-65
2022/09/05 06:50:04;;;;;;;0.00;0.00;;;24.60;94.90;;;;;;5053573;28;20179;-65
2022/09/05 06:52:49;;;;;;;0.00;0.00;;;24.70;95.20;;;;;;5052893;28;20182;-65
2022/09/05 06:55:43;;;;;;;0.00;0.00;;;24.90;95.20;;;;;;5053446;28;20177;-65
2022/09/05 06:58:29;;;;;;;0.00;0.00;;;25.40;94.30;;;;;;5053671;28;20261;-65
2022/09/05 07:00:56;;;;;;;0.00;0.00;;;26.20;93.50;;;;;;5053126;28;20227;-65
2022/09/05 07:03:56;;;;;;;0.00;0.00;;;27.00;92.00;;;;;;5053186;28;20244;-65
2022/09/05 07:06:36;;;;;;;0.00;0.00;;;27.80;90.00;;;;;;5053215;28;20182;-65
2022/09/05 07:09:13;;;;;;;0.00;0.00;;;28.30;85.90;;;;;;5053062;28;20545;-65
2022/09/05 07:11:45;;;;;;;0.00;0.00;;;28.60;82.90;;;;;;5052857;28;20252;-65
2022/09/05 07:14:23;;;;;;;0.00;0.00;;;28.70;82.00;;;;;;5053185;28;20584;-65
2022/09/05 07:17:09;;;;;;;0.00;0.00;;;28.50;80.20;;;;;;5052953;28;20209;-65
2022/09/05 07:19:49;;;;;;;0.00;0.00;;;28.00;80.60;;;;;;5052935;28;20322;-65
2022/09/05 07:22:31;;;;;;;0.00;0.00;;;27.60;82.20;;;;;;5053089;28;20173;-65
2022/09/05 07:25:00;;;;;;;0.00;0.00;;;27.60;82.70;;;;;;5052811;28;20655;-66
2022/09/05 07:27:41;;;;;;;0.00;0.00;;;27.50;82.10;;;;;;5052831;28;20286;-66
2022/09/05 07:30:07;;;;;;;0.00;0.00;;;27.60;83.30;;;;;;5051452;28;20545;-66
2022/09/05 07:32:41;;;;;;;0.00;0.00;;;28.30;81.00;;;;;;5052638;28;20184;-66
2022/09/05 07:35:32;;;;;;;0.00;0.00;;;29.00;79.50;;;;;;5052623;28;20180;-66
2022/09/05 07:38:22;;;;;;;0.00;0.00;;;29.90;76.80;;;;;;5052486;28;20580;-66
2022/09/05 07:40:57;;;;;;;0.00;0.00;;;30.80;72.90;;;;;;5052474;28;20185;-66
2022/09/05 07:43:29;;;;;;;0.00;0.00;;;31.50;71.60;;;;;;5052475;28;20185;-66
2022/09/05 07:46:10;;;;;;;0.00;0.00;;;32.20;67.10;;;;;;5052484;28;20382;-66
2022/09/05 07:48:57;;;;;;;0.00;0.00;;;32.70;63.40;;;;;;5052225;28;20181;-66
2022/09/05 07:51:37;;;;;;;0.00;0.00;;;32.40;63.40;;;;;;5052436;28;20654;-66
2022/09/05 07:54:10;;;;;;;0.00;0.00;;;32.10;62.20;;;;;;5052429;28;20208;-66
2022/09/05 07:56:46;;;;;;;0.10;0.10;;;31.60;61.80;;;;;;5052153;28;20201;-66
2022/09/05 07:59:14;;;;;;;0.00;0.00;;;31.00;62.70;;;;;;5052226;28;20248;-66
2022/09/05 08:01:46;;;;;;;0.00;0.00;;;30.40;63.90;;;;;;5051922;28;20685;-66
2022/09/05 08:04:33;;;;;;;0.00;0.00;;;29.80;66.00;;;;;;5052164;28;20173;-66
2022/09/05 08:07:05;;;;;;;0.00;0.00;;;29.20;66.90;;;;;;5051833;28;20224;-66
2022/09/05 08:09:35;;;;;;;0.00;0.00;;;28.80;68.30;;;;;;5052201;28;20190;-66
2022/09/05 08:12:20;;;;;;;0.00;0.00;;;28.40;69.80;;;;;;5052177;28;20166;-66
2022/09/05 08:15:10;;;;;;;0.00;0.00;;;28.00;70.50;;;;;;5051934;28;20181;-66
2022/09/05 08:18:13;;;;;;;0.00;0.00;;;27.60;71.60;;;;;;5051689;28;20656;-65
2022/09/05 08:20:42;;;;;;;0.00;0.00;;;27.30;73.40;;;;;;5051153;28;20552;-66
2022/09/05 08:23:29;;;;;;;0.00;0.00;;;27.00;74.70;;;;;;5051966;28;20624;-66
2022/09/05 08:26:12;;;;;;;0.00;0.00;;;26.70;75.90;;;;;;5051624;28;20220;-66
2022/09/05 08:28:39;;;;;;;0.00;0.00;;;26.50;77.30;;;;;;5051769;28;20535;-66
2022/09/05 08:31:13;;;;;;;0.00;0.00;;;26.30;78.20;;;;;;5051879;28;20191;-66
2022/09/05 08:33:40;;;;;;;0.00;0.00;;;26.20;79.20;;;;;;5051614;28;20200;-66
2022/09/05 08:36:22;;;;;;;0.00;0.00;;;26.10;80.10;;;;;;5051868;28;20621;-66
2022/09/05 08:38:49;;;;;;;0.00;0.00;;;26.10;80.60;;;;;;5051667;28;20644;-66
2022/09/05 08:41:25;;;;;;;0.00;0.00;;;26.10;82.10;;;;;;5051607;28;20206;-66
2022/09/05 08:43:51;;;;;;;0.00;0.00;;;26.00;82.20;;;;;;5051692;28;20173;-66
2022/09/05 08:46:31;;;;;;;0.00;0.00;;;26.00;82.20;;;;;;5051536;28;20219;-66
2022/09/05 08:49:33;;;;;;;0.00;0.00;;;26.20;82.30;;;;;;5051676;28;20206;-66
2022/09/05 08:52:36;;;;;;;0.00;0.00;;;26.20;82.00;;;;;;5051742;28;20184;-66
2022/09/05 08:55:38;;;;;;;0.00;0.00;;;26.20;82.90;;;;;;5051661;28;20208;-66
2022/09/05 08:58:16;;;;;;;0.00;0.00;;;26.20;82.60;;;;;;5051710;28;20165;-66
2022/09/05 09:00:50;;;;;;;0.00;0.00;;;26.20;83.00;;;;;;5051447;28;20193;-66
2022/09/05 09:03:39;;;;;;;0.08;0.08;;;26.10;83.40;;;;;;5051351;28;20314;-66
2022/09/05 09:06:20;;;;;;;0.00;0.00;;;26.10;83.60;;;;;;5040060;28;20221;-66
2022/09/05 09:09:09;;;;;;;0.00;0.00;;;26.00;83.40;;;;;;5051295;28;20644;-66
2022/09/05 09:11:42;;;;;;;0.03;0.03;;;26.00;83.80;;;;;;5051379;28;20252;-66
2022/09/05 09:14:39;;;;;;;0.00;0.00;;;26.00;84.30;;;;;;5052344;28;20227;-66
2022/09/05 09:17:21;;;;;;;0.00;0.00;;;26.10;84.40;;;;;;5055374;28;20178;-66
2022/09/05 09:19:56;;;;;;;0.00;0.00;;;26.20;83.70;;;;;;5055233;28;20169;-65
2022/09/05 09:22:34;;;;;;;0.00;0.00;;;26.30;84.00;;;;;;5055312;28;20176;-66
2022/09/05 09:25:10;;;;;;;0.00;0.00;;;26.40;83.90;;;;;;5055093;28;20200;-66
2022/09/05 09:28:01;;;;;;;0.00;0.00;;;26.50;83.90;;;;;;5054972;28;20228;-65
2022/09/05 09:30:29;;;;;;;0.00;0.00;;;26.60;83.30;;;;;;5054987;28;20189;-66
2022/09/05 09:33:00;;;;;;;0.00;0.00;;;26.60;83.40;;;;;;5054847;28;20185;-66
2022/09/05 09:35:45;;;;;;;0.00;0.00;;;26.80;83.40;;;;;;5055033;28;20637;-66
2022/09/05 09:38:45;;;;;;;0.00;0.00;;;26.90;83.40;;;;;;5054990;28;20169;-66
2022/09/05 09:41:31;;;;;;;0.00;0.00;;;27.30;83.30;;;;;;5054857;28;20169;-66
2022/09/05 09:44:46;;;;;;;0.30;0.28;;;27.80;82.40;;;;;;5054686;28;20177;-66
2022/09/05 09:47:28;;;;;;;0.00;0.00;;;28.70;80.10;;;;;;5054504;28;20185;-66
2022/09/05 09:50:39;;;;;;;0.00;0.00;;;29.50;78.70;;;;;;5054482;28;20217;-66
2022/09/05 09:53:33;;;;;;;0.00;0.00;;;30.20;76.30;;;;;;5054292;28;20185;-66
2022/09/05 09:56:29;;;;;;;0.00;0.00;;;30.90;74.70;;;;;;5054477;28;20216;-66
2022/09/05 09:59:05;;;;;;;0.00;0.00;;;31.30;71.90;;;;;;5054332;28;20201;-66
2022/09/05 10:01:37;;;;;;;0.00;0.00;;;31.80;67.10;;;;;;5054271;28;20317;-66
2022/09/05 10:04:47;;;;;;;0.00;0.00;;;32.20;66.90;;;;;;5054403;28;20625;-66
2022/09/05 10:07:21;;;;;;;0.00;0.00;;;32.60;65.30;;;;;;5045571;28;20675;-66
2022/09/05 10:10:04;;;;;;;0.00;0.00;;;32.80;62.70;;;;;;5054334;28;20178;-66
2022/09/05 10:12:48;;;;;;;0.00;0.00;;;32.80;63.40;;;;;;5054368;28;20271;-67
2022/09/05 10:15:24;;;;;;;0.00;0.00;;;32.60;63.50;;;;;;5054300;28;20551;-66
2022/09/05 10:18:03;;;;;;;0.00;0.00;;;32.40;65.10;;;;;;5054113;28;20166;-66
2022/09/05 10:20:53;;;;;;;0.00;0.00;;;32.60;65.10;;;;;;5054017;28;20189;-66
2022/09/05 10:23:49;;;;;;;0.00;0.00;;;32.50;62.80;;;;;;5053994;28;20268;-67
2022/09/05 10:26:52;;;;;;;0.00;0.00;;;32.40;62.70;;;;;;5052708;28;20235;-67
2022/09/05 10:29:45;;;;;;;0.00;0.00;;;32.50;63.20;;;;;;5053774;28;20209;-66
2022/09/05 10:32:32;;;;;;;0.00;0.00;;;32.80;61.80;;;;;;5053914;28;20173;-67
2022/09/05 10:35:22;;;;;;;0.00;0.00;;;33.00;62.00;;;;;;5053730;28;20173;-67
2022/09/05 10:38:02;;;;;;;0.00;0.00;;;33.20;60.80;;;;;;5053828;28;20234;-67
2022/09/05 10:40:32;;;;;;;0.00;0.00;;;33.60;59.40;;;;;;5053661;28;20648;-66
2022/09/05 10:43:12;;;;;;;0.20;0.17;;;33.60;60.60;;;;;;5053613;28;20178;-67
2022/09/05 10:45:55;;;;;;;0.10;0.10;;;33.40;59.10;;;;;;5053436;28;20259;-67
2022/09/05 10:48:26;;;;;;;0.00;0.00;;;33.50;59.50;;;;;;5053674;28;20637;-67
2022/09/05 10:51:02;;;;;;;0.00;0.00;;;33.60;59.80;;;;;;5053689;28;20228;-66
2022/09/05 10:53:43;;;;;;;0.00;0.00;;;33.60;58.30;;;;;;5053436;28;20177;-67
2022/09/05 10:56:25;;;;;;;0.00;0.00;;;33.60;57.40;;;;;;5053481;28;20226;-67
2022/09/05 10:59:00;;;;;;;0.00;0.00;;;33.60;57.50;;;;;;5053359;28;20173;-67
2022/09/05 11:01:32;;;;;;;0.00;0.00;;;33.90;57.90;;;;;;5053219;28;20498;-67
2022/09/05 11:04:16;;;;;;;0.00;0.00;;;34.10;58.30;;;;;;5053236;28;20180;-67
2022/09/05 11:06:45;;;;;;;0.00;0.00;;;34.20;58.40;;;;;;5053161;28;20193;-67
2022/09/05 11:09:46;;;;;;;0.00;0.00;;;34.30;57.80;;;;;;5053219;28;20757;-67
2022/09/05 11:12:31;;;;;;;0.00;0.00;;;34.30;55.40;;;;;;5051827;28;20184;-67
2022/09/05 11:15:16;;;;;;;0.00;0.00;;;34.40;55.30;;;;;;5053130;28;20192;-66
2022/09/05 11:17:52;;;;;;;0.00;0.00;;;34.00;55.20;;;;;;5052964;28;20215;-66
2022/09/05 11:20:43;;;;;;;0.00;0.00;;;34.00;56.40;;;;;;5053024;28;20532;-66
2022/09/05 11:23:38;;;;;;;0.00;0.00;;;33.70;55.80;;;;;;5053046;28;20185;-67
2022/09/05 11:26:08;;;;;;;0.00;0.00;;;33.80;55.50;;;;;;5052789;28;20642;-67
2022/09/05 11:28:52;;;;;;;0.00;0.00;;;34.10;55.00;;;;;;5052675;28;20223;-67
2022/09/05 11:31:25;;;;;;;0.00;0.00;;;34.20;55.40;;;;;;5052405;28;20663;-67
2022/09/05 11:34:30;;;;;;;0.00;0.00;;;34.10;55.20;;;;;;5052645;28;20197;-68
2022/09/05 11:37:00;;;;;;;0.00;0.00;;;34.20;53.50;;;;;;5052189;28;20231;-67
2022/09/05 11:40:03;;;;;;;0.00;0.00;;;34.10;54.10;;;;;;5052522;28;20170;-67
2022/09/05 11:43:03;;;;;;;0.00;0.00;;;34.30;54.50;;;;;;5052380;28;20344;-66
2022/09/05 11:46:00;;;;;;;0.00;0.00;;;34.40;53.40;;;;;;5052239;28;20216;-67
2022/09/05 11:48:58;;;;;;;0.00;0.00;;;34.50;53.30;;;;;;5052202;28;20185;-67
2022/09/05 11:51:44;;;;;;;0.00;0.00;;;34.60;52.60;;;;;;5052356;28;20222;-67
2022/09/05 11:54:41;;;;;;;0.00;0.00;;;34.40;52.00;;;;;;5052301;28;20234;-67
2022/09/05 11:57:22;;;;;;;0.00;0.00;;;34.00;52.30;;;;;;5052186;28;20185;-67
2022/09/05 12:00:09;;;;;;;0.00;0.00;;;33.40;52.50;;;;;;5051987;28;20219;-67
2022/09/05 12:02:53;;;;;;;0.00;0.00;;;33.20;52.70;;;;;;5051743;28;20228;-67
2022/09/05 12:05:41;;;;;;;0.00;0.00;;;33.10;54.60;;;;;;5051805;28;20553;-67
2022/09/05 12:08:40;;;;;;;0.00;0.00;;;32.90;53.00;;;;;;5052041;28;20189;-67
2022/09/05 12:11:20;;;;;;;0.00;0.00;;;32.90;53.10;;;;;;5050036;28;20243;-67
2022/09/05 12:13:48;;;;;;;0.00;0.00;;;33.10;53.40;;;;;;5051896;28;20648;-65
2022/09/05 12:16:41;;;;;;;0.00;0.00;;;33.10;52.80;;;;;;5051899;28;20174;-65
2022/09/05 12:19:32;;;;;;;0.00;0.00;;;33.10;53.10;;;;;;5050700;28;20213;-65
2022/09/05 12:22:34;;;;;;;0.00;0.00;;;33.30;52.50;;;;;;5051772;28;20633;-64
2022/09/05 12:25:18;;;;;;;0.00;0.00;;;33.50;53.20;;;;;;5051606;28;20672;-64
2022/09/05 12:27:47;;;;;;;0.00;0.00;;;33.40;52.40;;;;;;5051646;28;20165;-65
2022/09/05 12:30:22;;;;;;;0.00;0.00;;;33.60;52.10;;;;;;5051691;28;20581;-65
2022/09/05 12:32:50;;;;;;;0.00;0.00;;;33.60;51.90;;;;;;5051510;28;20176;-64
2022/09/05 12:35:36;;;;;;;0.00;0.00;;;33.60;51.30;;;;;;5051588;28;20181;-67
2022/09/05 12:38:20;;;;;;;0.00;0.00;;;33.40;51.30;;;;;;5051770;28;20169;-65
2022/09/05 12:41:16;;;;;;;0.00;0.00;;;33.50;50.80;;;;;;5051516;28;20177;-65
2022/09/05 12:44:01;;;;;;;0.00;0.00;;;33.30;51.00;;;;;;5051359;28;20284;-65
2022/09/05 12:46:51;;;;;;;0.00;0.00;;;33.30;50.50;;;;;;5051539;28;20216;-66
2022/09/05 12:49:30;;;;;;;0.00;0.00;;;33.40;51.10;;;;;;5052665;28;20195;-65
2022/09/05 12:52:04;;;;;;;0.25;0.10;;;33.20;49.30;;;;;;5055422;28;20185;-65
2022/09/05 12:54:46;;;;;;;0.00;0.00;;;33.10;50.10;;;;;;5055698;28;20187;-65
2022/09/05 12:57:26;;;;;;;0.00;0.00;;;32.90;48.50;;;;;;5054320;28;20180;-65
2022/09/05 12:59:55;;;;;;;0.00;0.00;;;32.70;47.50;;;;;;5055622;28;20181;-65
2022/09/05 13:02:26;;;;;;;0.00;0.00;;;32.50;48.20;;;;;;5055310;28;20580;-66
2022/09/05 13:04:57;;;;;;;0.00;0.00;;;32.70;49.00;;;;;;5055388;28;20220;-65
2022/09/05 13:07:47;;;;;;;0.00;0.00;;;32.80;49.30;;;;;;5055341;28;20192;-65
2022/09/05 13:10:36;;;;;;;0.00;0.00;;;33.00;49.70;;;;;;5055367;28;20181;-66
2022/09/05 13:13:05;;;;;;;0.00;0.00;;;32.90;49.60;;;;;;5055405;28;20193;-65
2022/09/05 13:15:36;;;;;;;0.08;0.08;;;32.80;48.70;;;;;;5054684;28;20668;-66
2022/09/05 13:18:09;;;;;;;0.00;0.00;;;32.70;47.70;;;;;;5055024;28;20196;-66
2022/09/05 13:20:38;;;;;;;0.00;0.00;;;32.60;45.90;;;;;;5034913;28;20197;-66
2022/09/05 13:23:45;;;;;;;0.00;0.00;;;32.50;44.70;;;;;;5035119;28;20174;-65
2022/09/05 13:26:16;;;;;;;0.00;0.00;;;32.40;45.50;;;;;;5028877;28;20324;-67
2022/09/05 13:28:55;;;;;;;0.00;0.00;;;32.40;44.70;;;;;;5050046;28;20181;-67
2022/09/05 13:31:41;;;;;;;0.00;0.00;;;32.40;45.40;;;;;;5035100;28;20186;-67
2022/09/05 13:34:22;;;;;;;0.00;0.00;;;32.40;43.90;;;;;;5044923;28;20177;-67
2022/09/05 13:36:58;;;;;;;0.00;0.00;;;32.30;46.20;;;;;;5053407;28;20542;-65
2022/09/05 13:39:27;;;;;;;0.00;0.00;;;32.20;45.50;;;;;;5054483;28;20180;-65
2022/09/05 13:42:02;;;;;;;0.00;0.00;;;32.30;45.70;;;;;;5054078;28;20174;-65
2022/09/05 13:44:32;;;;;;;0.00;0.00;;;32.30;45.10;;;;;;5054255;28;20291;-66
2022/09/05 13:47:12;;;;;;;0.00;0.00;;;32.30;44.40;;;;;;5054115;28;20721;-65
2022/09/05 13:49:57;;;;;;;0.00;0.00;;;32.20;43.60;;;;;;5053689;28;20182;-65
2022/09/05 13:52:38;;;;;;;0.00;0.00;;;32.20;45.30;;;;;;5054570;28;20197;-66
2022/09/05 13:55:15;;;;;;;0.00;0.00;;;32.30;43.40;;;;;;5052963;28;20268;-65
2022/09/05 13:58:11;;;;;;;0.00;0.00;;;32.40;41.40;;;;;;5038733;28;20539;-67
2022/09/05 14:00:40;;;;;;;0.00;0.00;;;32.30;39.70;;;;;;5053611;28;20714;-65
2022/09/05 14:03:35;;;;;;;0.00;0.00;;;32.40;40.20;;;;;;5053972;28;20225;-67
2022/09/05 14:06:25;;;;;;;0.00;0.00;;;32.40;41.30;;;;;;5054190;28;20739;-68
2022/09/05 14:09:21;;;;;;;0.00;0.00;;;32.20;40.90;;;;;;5052436;28;20552;-67